Time;durP1;ratioP1;P1;durP2;ratioP2;P2;SDS_P1;SDS_P2;PMS_P1;PMS_P2;Temp;Humidity;BMP_temperature;BMP_pressure;BME280_temperature;BME280_humidity;BME280_pressure;Samples;Min_cycle;Max_cycle;Signal;HPM_P1;HPM_P2
2021/04/23 00:01:38;;;;;;;;;;;19.80;58.20;;;;;;5074208;28;1043;-64
2021/04/23 00:04:06;;;;;;;;;;;19.80;58.20;;;;;;5074252;28;1139;-64
2021/04/23 00:06:38;;;;;;;;;;;19.80;58.20;;;;;;5072810;28;1213;-63
2021/04/23 00:09:14;;;;;;;;;;;19.80;58.20;;;;;;5073739;28;1365;-64
2021/04/23 00:11:41;;;;;;;;;;;19.80;58.20;;;;;;5073903;28;1071;-64
2021/04/23 00:14:06;;;;;;;;;;;19.80;58.20;;;;;;5073995;28;1098;-64
2021/04/23 00:16:32;;;;;;;;;;;19.80;58.20;;;;;;5073561;28;1027;-63
2021/04/23 00:18:57;;;;;;;;;;;19.80;58.20;;;;;;5073760;28;1897;-63
2021/04/23 00:21:23;;;;;;;;;;;19.80;58.30;;;;;;5073633;28;1122;-65
2021/04/23 00:23:49;;;;;;;;;;;19.80;58.30;;;;;;5073590;28;1145;-66
2021/04/23 00:26:14;;;;;;;;;;;19.80;58.30;;;;;;5072259;28;1071;-63
2021/04/23 00:28:40;;;;;;;;;;;19.80;58.30;;;;;;5073660;28;1832;-64
2021/04/23 00:31:05;;;;;;;;;;;19.80;58.30;;;;;;5072283;28;1166;-64
2021/04/23 00:33:31;;;;;;;;;;;19.80;58.30;;;;;;5073667;28;1131;-66
2021/04/23 00:35:56;;;;;;;;;;;19.80;58.30;;;;;;5073262;28;1095;-64
2021/04/23 00:38:24;;;;;;;;;;;19.70;58.30;;;;;;5073705;28;1906;-63
2021/04/23 00:40:51;;;;;;;;;;;19.70;58.30;;;;;;5073355;28;1103;-65
2021/04/23 00:43:17;;;;;;;;;;;19.70;58.30;;;;;;5072518;28;1091;-64
2021/04/23 00:45:42;;;;;;;;;;;19.70;58.30;;;;;;5072893;28;1130;-64
2021/04/23 00:48:08;;;;;;;;;;;19.70;58.30;;;;;;5072090;28;1277;-63
2021/04/23 00:50:33;;;;;;;;;;;19.70;58.30;;;;;;5071975;28;1189;-64
2021/04/23 00:52:59;;;;;;;;;;;19.70;58.30;;;;;;5073350;28;1107;-63
2021/04/23 00:55:25;;;;;;;;;;;19.70;58.30;;;;;;5071689;28;1083;-63
2021/04/23 00:57:50;;;;;;;;;;;19.70;58.30;;;;;;5071919;28;1977;-64
2021/04/23 01:00:16;;;;;;;;;;;19.70;58.30;;;;;;5073166;28;1207;-64
2021/04/23 01:02:41;;;;;;;;;;;19.70;58.40;;;;;;5073113;28;1154;-63
2021/04/23 01:05:07;;;;;;;;;;;19.70;58.40;;;;;;5073106;28;1075;-64
2021/04/23 01:07:32;;;;;;;;;;;19.70;58.40;;;;;;5073057;28;1063;-64
2021/04/23 01:09:58;;;;;;;;;;;19.70;58.40;;;;;;5073012;28;1197;-64
2021/04/23 01:12:23;;;;;;;;;;;19.70;58.40;;;;;;5072940;28;1300;-64
2021/04/23 01:14:48;;;;;;;;;;;19.70;58.40;;;;;;5072841;28;1090;-65
2021/04/23 01:17:14;;;;;;;;;;;19.70;58.40;;;;;;5071324;28;1131;-64
2021/04/23 01:19:39;;;;;;;;;;;19.70;58.40;;;;;;5072659;28;1906;-64
2021/04/23 01:22:05;;;;;;;;;;;19.70;58.40;;;;;;5072584;28;1137;-66
2021/04/23 01:24:30;;;;;;;;;;;19.70;58.40;;;;;;5072887;28;1157;-63
2021/04/23 01:26:56;;;;;;;;;;;19.70;58.40;;;;;;5072631;28;1056;-64
2021/04/23 01:29:22;;;;;;;;;;;19.70;58.40;;;;;;5072762;28;1284;-63
2021/04/23 01:31:49;;;;;;;;;;;19.70;58.40;;;;;;5071599;28;1151;-64
2021/04/23 01:34:20;;;;;;;;;;;19.60;58.40;;;;;;5071576;28;1174;-63
2021/04/23 01:36:45;;;;;;;;;;;19.60;58.40;;;;;;5071216;28;1067;-64
2021/04/23 01:39:13;;;;;;;;;;;19.60;58.40;;;;;;5072521;28;1906;-63
2021/04/23 01:41:38;;;;;;;;;;;19.60;58.40;;;;;;5072960;28;1043;-64
2021/04/23 01:44:04;;;;;;;;;;;19.60;58.40;;;;;;5072667;28;1154;-64
2021/04/23 01:46:33;;;;;;;;;;;19.70;58.40;;;;;;5072878;28;1083;-63
2021/04/23 01:48:59;;;;;;;;;;;19.70;58.40;;;;;;5072367;28;1831;-63
2021/04/23 01:51:24;;;;;;;;;;;19.70;58.40;;;;;;5072721;28;1178;-63
2021/04/23 01:53:50;;;;;;;;;;;19.70;58.30;;;;;;5072617;28;1118;-65
2021/04/23 01:56:15;;;;;;;;;;;19.70;58.30;;;;;;5072207;28;1075;-64
2021/04/23 01:58:41;;;;;;;;;;;19.70;58.30;;;;;;5072364;28;1917;-64
2021/04/23 02:01:06;;;;;;;;;;;19.70;58.20;;;;;;5072502;28;1067;-65
2021/04/23 02:03:32;;;;;;;;;;;19.70;58.20;;;;;;5071193;28;1078;-63
2021/04/23 02:05:57;;;;;;;;;;;19.70;58.20;;;;;;5070787;28;1272;-63
2021/04/23 02:08:23;;;;;;;;;;;19.80;58.80;;;;;;5071269;28;1382;-65
2021/04/23 02:10:50;;;;;;;;;;;19.70;58.20;;;;;;5072384;28;1067;-65
2021/04/23 02:13:17;;;;;;;;;;;19.80;58.20;;;;;;5072531;28;1090;-63
2021/04/23 02:15:43;;;;;;;;;;;19.80;58.10;;;;;;5072118;28;1166;-65
2021/04/23 02:18:08;;;;;;;;;;;19.80;58.10;;;;;;5071934;28;1963;-64
2021/04/23 02:20:37;;;;;;;;;;;19.80;58.10;;;;;;5071312;28;1071;-64
2021/04/23 02:23:10;;;;;;;;;;;19.80;58.10;;;;;;5072441;28;1122;-63
2021/04/23 02:25:36;;;;;;;;;;;19.80;58.10;;;;;;5070197;28;1199;-64
2021/04/23 02:28:06;;;;;;;;;;;19.80;58.00;;;;;;5072337;28;1346;-64
2021/04/23 02:30:35;;;;;;;;;;;19.80;58.10;;;;;;5073989;28;1067;-64
2021/04/23 02:33:01;;;;;;;;;;;19.80;58.00;;;;;;5075834;28;1161;-62
2021/04/23 02:35:26;;;;;;;;;;;19.80;58.00;;;;;;5075703;28;1141;-64
2021/04/23 02:37:52;;;;;;;;;;;19.80;57.90;;;;;;5075805;28;1898;-63
2021/04/23 02:40:18;;;;;;;;;;;19.80;58.20;;;;;;5075897;28;1224;-63
2021/04/23 02:42:44;;;;;;;;;;;19.90;57.90;;;;;;5074479;28;1029;-63
2021/04/23 02:45:10;;;;;;;;;;;19.90;57.80;;;;;;5075555;28;1146;-66
2021/04/23 02:47:35;;;;;;;;;;;20.00;57.70;;;;;;5075371;28;1087;-63
2021/04/23 02:50:04;;;;;;;;;;;20.10;57.60;;;;;;5057549;28;1270;-64
2021/04/23 02:52:29;;;;;;;;;;;20.20;57.40;;;;;;5075733;28;1663;-64
2021/04/23 02:54:54;;;;;;;;;;;20.30;57.20;;;;;;5075688;28;1266;-65
2021/04/23 02:57:20;;;;;;;;;;;20.40;57.60;;;;;;5075231;28;1721;-63
2021/04/23 02:59:45;;;;;;;;;;;20.50;56.80;;;;;;5075230;28;1902;-65
2021/04/23 03:02:11;;;;;;;;;;;20.60;56.60;;;;;;5075237;28;1158;-65
2021/04/23 03:04:36;;;;;;;;;;;20.70;56.40;;;;;;5075416;28;1062;-64
2021/04/23 03:07:02;;;;;;;;;;;20.70;56.20;;;;;;5074963;28;1241;-63
2021/04/23 03:09:27;;;;;;;;;;;20.80;56.10;;;;;;5075460;28;1191;-64
2021/04/23 03:11:52;;;;;;;;;;;20.80;55.90;;;;;;5075042;28;1043;-63
2021/04/23 03:14:18;;;;;;;;;;;20.90;55.80;;;;;;5075178;28;1161;-63
2021/04/23 03:16:43;;;;;;;;;;;20.90;55.70;;;;;;5074531;28;1071;-64
2021/04/23 03:19:10;;;;;;;;;;;21.00;55.60;;;;;;5075220;28;1959;-63
2021/04/23 03:21:35;;;;;;;;;;;21.00;55.50;;;;;;5074977;28;1074;-65
2021/04/23 03:24:01;;;;;;;;;;;21.10;55.40;;;;;;5075068;28;1244;-63
2021/04/23 03:26:26;;;;;;;;;;;21.10;55.40;;;;;;5074696;28;1103;-63
2021/04/23 03:28:52;;;;;;;;;;;21.10;55.30;;;;;;5073586;28;1272;-65
2021/04/23 03:31:18;;;;;;;;;;;21.10;55.20;;;;;;5074636;28;1111;-63
2021/04/23 03:33:43;;;;;;;;;;;21.20;55.20;;;;;;5074951;28;1130;-63
2021/04/23 03:36:09;;;;;;;;;;;21.20;55.10;;;;;;5074568;28;1198;-64
2021/04/23 03:38:35;;;;;;;;;;;21.20;55.10;;;;;;5074866;28;1945;-64
2021/04/23 03:41:01;;;;;;;;;;;21.20;55.00;;;;;;5074509;28;1166;-63
2021/04/23 03:43:26;;;;;;;;;;;21.20;55.00;;;;;;5074709;28;1126;-65
2021/04/23 03:45:53;;;;;;;;;;;21.20;55.00;;;;;;5074039;28;1072;-63
2021/04/23 03:48:18;;;;;;;;;;;21.30;55.10;;;;;;5074403;28;1231;-63
2021/04/23 03:50:43;;;;;;;;;;;21.30;55.10;;;;;;5074655;28;1157;-63
2021/04/23 03:53:10;;;;;;;;;;;21.20;55.00;;;;;;5074451;28;1075;-64
2021/04/23 03:55:37;;;;;;;;;;;21.20;55.00;;;;;;5073352;28;1047;-64
2021/04/23 03:58:02;;;;;;;;;;;21.20;55.00;;;;;;5074131;28;1965;-63
2021/04/23 04:00:29;;;;;;;;;;;21.30;55.10;;;;;;5074275;28;1099;-64
2021/04/23 04:02:55;;;;;;;;;;;21.30;55.10;;;;;;5074251;28;1055;-64
2021/04/23 04:05:20;;;;;;;;;;;21.30;55.10;;;;;;5073920;28;1131;-63
2021/04/23 04:07:46;;;;;;;;;;;21.20;55.10;;;;;;5073161;28;1052;-63
2021/04/23 04:10:12;;;;;;;;;;;21.20;55.20;;;;;;5074058;28;1201;-66
2021/04/23 04:12:40;;;;;;;;;;;21.20;55.20;;;;;;5073954;28;1078;-63
2021/04/23 04:15:05;;;;;;;;;;;21.20;55.20;;;;;;5073791;28;1083;-63
2021/04/23 04:17:31;;;;;;;;;;;21.20;55.30;;;;;;5074071;28;1067;-63
2021/04/23 04:19:56;;;;;;;;;;;21.20;55.30;;;;;;5073742;28;1901;-64
2021/04/23 04:22:22;;;;;;;;;;;21.20;55.50;;;;;;5073817;28;1126;-65
2021/04/23 04:24:47;;;;;;;;;;;21.20;55.40;;;;;;5073817;28;1047;-63
2021/04/23 04:27:14;;;;;;;;;;;21.10;55.40;;;;;;5073717;28;1122;-64
2021/04/23 04:29:39;;;;;;;;;;;21.10;55.40;;;;;;5072587;28;1240;-63
2021/04/23 04:32:05;;;;;;;;;;;21.10;55.50;;;;;;5072340;28;1115;-64
2021/04/23 04:34:30;;;;;;;;;;;21.10;55.50;;;;;;5073943;28;1111;-64
2021/04/23 04:36:56;;;;;;;;;;;21.10;55.60;;;;;;5073387;28;1137;-63
2021/04/23 04:39:21;;;;;;;;;;;21.10;55.60;;;;;;5073680;28;1965;-63
2021/04/23 04:41:46;;;;;;;;;;;21.10;55.70;;;;;;5073560;28;1122;-65
2021/04/23 04:44:12;;;;;;;;;;;21.00;55.60;;;;;;5073154;28;1189;-63
2021/04/23 04:46:37;;;;;;;;;;;21.00;55.70;;;;;;5073147;28;1128;-63
2021/04/23 04:49:06;;;;;;;;;;;21.00;56.30;;;;;;5073068;28;1311;-65
2021/04/23 04:51:31;;;;;;;;;;;21.00;55.80;;;;;;5073483;28;1083;-63
2021/04/23 04:53:57;;;;;;;;;;;21.00;55.80;;;;;;5072668;28;1000;-65
2021/04/23 04:56:22;;;;;;;;;;;21.00;55.80;;;;;;5073053;28;1321;-64
2021/04/23 04:58:48;;;;;;;;;;;21.00;55.90;;;;;;5067980;28;1967;-62
2021/04/23 05:01:14;;;;;;;;;;;20.90;55.90;;;;;;5070466;28;1831;-63
2021/04/23 05:03:40;;;;;;;;;;;20.90;55.90;;;;;;5084967;28;1272;-63
2021/04/23 05:06:05;;;;;;;;;;;20.90;55.90;;;;;;5055115;28;1225;-63
2021/04/23 05:08:31;;;;;;;;;;;20.90;56.00;;;;;;5072089;28;1373;-63
2021/04/23 05:10:57;;;;;;;;;;;20.90;56.00;;;;;;5073107;28;1118;-63
2021/04/23 05:13:23;;;;;;;;;;;20.90;56.00;;;;;;5072481;28;1134;-62
2021/04/23 05:15:48;;;;;;;;;;;20.90;56.00;;;;;;5072300;28;962;-63
2021/04/23 05:18:14;;;;;;;;;;;20.90;56.00;;;;;;5072920;28;1902;-62
2021/04/23 05:20:39;;;;;;;;;;;20.90;56.00;;;;;;5072893;28;1213;-62
2021/04/23 05:23:05;;;;;;;;;;;20.90;56.00;;;;;;5072684;28;1031;-62
2021/04/23 05:25:30;;;;;;;;;;;20.90;56.00;;;;;;5071380;28;1154;-64
2021/04/23 05:27:56;;;;;;;;;;;20.90;55.90;;;;;;5072371;28;1245;-63
2021/04/23 05:30:22;;;;;;;;;;;20.90;56.00;;;;;;5071431;28;1103;-63
2021/04/23 05:32:48;;;;;;;;;;;20.90;55.90;;;;;;5072438;28;1166;-63
2021/04/23 05:35:14;;;;;;;;;;;20.90;55.90;;;;;;5072560;28;1103;-63
2021/04/23 05:37:39;;;;;;;;;;;21.00;56.00;;;;;;5072719;28;1906;-63
2021/04/23 05:40:05;;;;;;;;;;;20.90;55.90;;;;;;5072710;28;1291;-63
2021/04/23 05:42:31;;;;;;;;;;;20.90;56.50;;;;;;5072355;28;1059;-62
2021/04/23 05:44:56;;;;;;;;;;;20.90;55.90;;;;;;5072478;28;1048;-63
2021/04/23 05:47:22;;;;;;;;;;;20.90;56.00;;;;;;5070485;28;1918;-63
2021/04/23 05:49:48;;;;;;;;;;;20.90;56.00;;;;;;5078441;28;1243;-64
2021/04/23 05:52:13;;;;;;;;;;;20.90;56.00;;;;;;5086955;28;1082;-63
2021/04/23 05:54:39;;;;;;;;;;;20.90;56.00;;;;;;5072706;28;1079;-64
2021/04/23 05:57:04;;;;;;;;;;;20.90;56.00;;;;;;5071930;28;1197;-64
2021/04/23 05:59:30;;;;;;;;;;;20.90;56.10;;;;;;5072733;28;1907;-64
2021/04/23 06:01:55;;;;;;;;;;;20.90;56.10;;;;;;5072332;28;1067;-63
2021/04/23 06:04:20;;;;;;;;;;;20.90;56.10;;;;;;5072731;28;883;-65
2021/04/23 06:06:46;;;;;;;;;;;20.90;56.10;;;;;;5076147;28;1220;-65
2021/04/23 06:09:11;;;;;;;;;;;20.80;56.10;;;;;;5076521;28;1208;-64
2021/04/23 06:11:37;;;;;;;;;;;20.80;56.20;;;;;;5076120;28;1083;-64
2021/04/23 06:14:03;;;;;;;;;;;20.90;56.20;;;;;;5076399;28;1039;-65
2021/04/23 06:16:29;;;;;;;;;;;20.80;56.20;;;;;;5075921;28;1122;-65
2021/04/23 06:18:54;;;;;;;;;;;20.80;56.20;;;;;;5076208;28;1976;-64
2021/04/23 06:21:19;;;;;;;;;;;20.80;56.30;;;;;;5076531;28;1111;-64
2021/04/23 06:23:45;;;;;;;;;;;20.80;56.30;;;;;;5076429;28;1197;-64
2021/04/23 06:26:10;;;;;;;;;;;20.80;56.30;;;;;;5076022;28;1107;-65
2021/04/23 06:28:36;;;;;;;;;;;20.80;56.30;;;;;;5076030;28;1257;-64
2021/04/23 06:31:01;;;;;;;;;;;20.80;56.70;;;;;;5076011;28;1150;-65
2021/04/23 06:33:33;;;;;;;;;;;20.70;56.40;;;;;;5076439;28;1150;-64
2021/04/23 06:35:58;;;;;;;;;;;20.80;56.40;;;;;;5075790;28;1082;-63
2021/04/23 06:38:24;;;;;;;;;;;20.80;56.50;;;;;;5075718;28;1903;-64
2021/04/23 06:40:50;;;;;;;;;;;20.70;56.50;;;;;;5075426;28;1130;-62
2021/04/23 06:43:15;;;;;;;;;;;20.70;56.50;;;;;;5074507;28;1173;-63
2021/04/23 06:45:41;;;;;;;;;;;20.70;56.50;;;;;;5075509;28;1130;-63
2021/04/23 06:48:10;;;;;;;;;;;20.70;56.50;;;;;;5075761;28;1303;-64
2021/04/23 06:50:35;;;;;;;;;;;20.70;56.50;;;;;;5075716;28;1138;-65
2021/04/23 06:53:02;;;;;;;;;;;20.70;56.50;;;;;;5072594;28;1587;-63
2021/04/23 06:55:27;;;;;;;;;;;20.70;56.60;;;;;;5068574;28;1080;-63
2021/04/23 06:57:53;;;;;;;;;;;20.70;56.60;;;;;;5074325;28;1906;-63
2021/04/23 07:00:20;;;;;;;;;;;20.70;56.60;;;;;;5074096;28;1381;-63
2021/04/23 07:02:45;;;;;;;;;;;20.70;56.60;;;;;;5075322;28;1059;-63
2021/04/23 07:05:11;;;;;;;;;;;20.70;56.70;;;;;;5074985;28;1309;-63
2021/04/23 07:07:36;;;;;;;;;;;20.60;56.60;;;;;;5075154;28;1056;-63
2021/04/23 07:10:03;;;;;;;;;;;20.70;56.70;;;;;;5075159;28;1196;-63
2021/04/23 07:12:28;;;;;;;;;;;20.60;56.70;;;;;;5075610;28;1056;-64
2021/04/23 07:14:54;;;;;;;;;;;20.60;56.70;;;;;;5075229;28;1071;-63
2021/04/23 07:17:19;;;;;;;;;;;20.60;56.70;;;;;;5074286;28;1059;-63
2021/04/23 07:19:47;;;;;;;;;;;20.60;56.70;;;;;;5075109;28;1894;-64
2021/04/23 07:22:13;;;;;;;;;;;20.60;56.70;;;;;;5062025;28;1067;-63
2021/04/23 07:24:39;;;;;;;;;;;20.60;56.70;;;;;;5075180;28;1169;-65
2021/04/23 07:27:04;;;;;;;;;;;20.60;56.80;;;;;;5074584;28;1015;-62
2021/04/23 07:29:30;;;;;;;;;;;20.60;56.80;;;;;;5074645;28;1266;-63
2021/04/23 07:31:55;;;;;;;;;;;20.60;56.80;;;;;;5074705;28;1068;-64
2021/04/23 07:34:20;;;;;;;;;;;20.50;56.80;;;;;;5074702;28;1066;-64
2021/04/23 07:36:46;;;;;;;;;;;20.60;56.80;;;;;;5074458;28;1134;-63
2021/04/23 07:39:13;;;;;;;;;;;20.50;56.80;;;;;;5074638;28;1965;-65
2021/04/23 07:41:39;;;;;;;;;;;20.50;56.80;;;;;;5075027;28;1030;-63
2021/04/23 07:44:05;;;;;;;;;;;20.50;56.80;;;;;;5074691;28;1107;-64
2021/04/23 07:46:31;;;;;;;;;;;20.50;56.80;;;;;;5074504;28;1134;-64
2021/04/23 07:48:56;;;;;;;;;;;20.50;56.90;;;;;;5073201;28;1389;-63
2021/04/23 07:51:22;;;;;;;;;;;20.50;56.90;;;;;;5074650;28;1087;-64
2021/04/23 07:53:47;;;;;;;;;;;20.50;56.90;;;;;;5074166;28;1119;-63
2021/04/23 07:56:12;;;;;;;;;;;20.50;56.90;;;;;;5074367;28;1047;-63
2021/04/23 07:58:38;;;;;;;;;;;20.50;57.00;;;;;;5072907;28;1990;-63
2021/04/23 08:01:03;;;;;;;;;;;20.50;57.00;;;;;;5074396;28;1079;-63
2021/04/23 08:03:32;;;;;;;;;;;20.50;57.00;;;;;;5074227;28;1122;-65
2021/04/23 08:05:57;;;;;;;;;;;20.50;57.00;;;;;;5074009;28;1073;-63
2021/04/23 08:08:23;;;;;;;;;;;20.40;57.00;;;;;;5074047;28;1327;-63
2021/04/23 08:10:48;;;;;;;;;;;20.40;57.10;;;;;;5074140;28;1055;-63
2021/04/23 08:13:13;;;;;;;;;;;20.40;57.10;;;;;;5073975;28;1055;-64
2021/04/23 08:15:39;;;;;;;;;;;20.40;57.10;;;;;;5073849;28;1137;-63
2021/04/23 08:18:04;;;;;;;;;;;20.40;57.10;;;;;;5073599;28;2025;-62
2021/04/23 08:20:30;;;;;;;;;;;20.40;57.10;;;;;;5073956;28;1051;-63
2021/04/23 08:22:55;;;;;;;;;;;20.40;57.10;;;;;;5073768;28;1087;-64
2021/04/23 08:25:21;;;;;;;;;;;20.40;57.10;;;;;;5066942;28;1543;-61
2021/04/23 08:27:46;;;;;;;;;;;20.40;57.20;;;;;;5066400;28;870;-63
2021/04/23 08:30:12;;;;;;;;;;;20.40;57.20;;;;;;5069896;28;1176;-62
2021/04/23 08:32:38;;;;;;;;;;;20.40;57.20;;;;;;5072409;28;1118;-63
2021/04/23 08:35:04;;;;;;;;;;;20.40;57.20;;;;;;5073855;28;1710;-63
2021/04/23 08:37:29;;;;;;;;;;;20.40;57.20;;;;;;5055502;28;1267;-63
2021/04/23 08:39:55;;;;;;;;;;;20.40;57.20;;;;;;5073660;28;1902;-61
2021/04/23 08:42:21;;;;;;;;;;;20.40;57.20;;;;;;5073710;28;1686;-63
2021/04/23 08:44:46;;;;;;;;;;;20.40;57.30;;;;;;5073718;28;1635;-64
2021/04/23 08:47:13;;;;;;;;;;;20.40;57.30;;;;;;5073571;28;767;-63
2021/04/23 08:49:39;;;;;;;;;;;20.40;57.30;;;;;;5072093;28;1516;-63
2021/04/23 08:52:04;;;;;;;;;;;20.40;57.30;;;;;;5073623;28;978;-61
2021/04/23 08:54:30;;;;;;;;;;;20.30;57.30;;;;;;5073642;28;1289;-63
2021/04/23 08:56:55;;;;;;;;;;;20.30;57.30;;;;;;5073396;28;1665;-63
2021/04/23 08:59:21;;;;;;;;;;;20.30;57.30;;;;;;5073259;28;1981;-63
2021/04/23 09:01:46;;;;;;;;;;;20.30;57.40;;;;;;5073170;28;1126;-63
2021/04/23 09:04:12;;;;;;;;;;;20.30;57.30;;;;;;5072104;28;1162;-62
2021/04/23 09:06:38;;;;;;;;;;;20.30;57.40;;;;;;5072797;28;1204;-63
2021/04/23 09:09:04;;;;;;;;;;;20.30;57.40;;;;;;5072930;28;1241;-63
2021/04/23 09:11:35;;;;;;;;;;;20.30;57.40;;;;;;5072119;28;1075;-63
2021/04/23 09:14:23;;;;;;;;;;;20.30;57.40;;;;;;5073015;28;1098;-63
2021/04/23 09:16:55;;;;;;;;;;;20.30;57.40;;;;;;5072766;28;1555;-62
2021/04/23 09:19:30;;;;;;;;;;;20.30;57.40;;;;;;5071572;28;1905;-62
2021/04/23 09:21:59;;;;;;;;;;;20.30;57.40;;;;;;5072932;28;1182;-64
2021/04/23 09:24:29;;;;;;;;;;;20.30;57.40;;;;;;5072990;28;1115;-63
2021/04/23 09:26:55;;;;;;;;;;;20.30;57.40;;;;;;5072643;28;1127;-65
2021/04/23 09:29:23;;;;;;;;;;;20.30;57.40;;;;;;5071390;28;1434;-63
2021/04/23 09:31:49;;;;;;;;;;;20.30;57.40;;;;;;5072681;28;1052;-64
2021/04/23 09:34:14;;;;;;;;;;;20.30;57.40;;;;;;5070337;28;2032;-64
2021/04/23 09:36:44;;;;;;;;;;;20.30;57.40;;;;;;5067725;28;1406;-63
2021/04/23 09:39:11;;;;;;;;;;;20.30;57.40;;;;;;5061294;28;2001;-63
2021/04/23 09:41:37;;;;;;;;;;;20.30;57.40;;;;;;5058043;28;886;-64
2021/04/23 09:44:03;;;;;;;;;;;20.30;57.40;;;;;;5072654;28;1091;-65
2021/04/23 09:46:32;;;;;;;;;;;20.30;57.40;;;;;;5072468;28;1060;-64
2021/04/23 09:49:13;;;;;;;;;;;20.30;57.40;;;;;;5071250;28;1228;-63
2021/04/23 09:51:39;;;;;;;;;;;20.30;57.50;;;;;;5071362;28;1114;-63
2021/04/23 09:54:11;;;;;;;;;;;20.30;52.50;;;;;;5072628;28;1098;-64
2021/04/23 09:56:36;;;;;;;;;;;20.20;47.90;;;;;;5072632;28;1013;-63
2021/04/23 09:59:15;;;;;;;;;;;20.10;46.50;;;;;;5072380;28;1983;-64
2021/04/23 10:01:57;;;;;;;;;;;20.00;45.50;;;;;;5072359;28;1055;-63
2021/04/23 10:04:26;;;;;;;;;;;19.90;46.90;;;;;;5072497;28;1063;-63
2021/04/23 10:07:04;;;;;;;;;;;19.90;48.00;;;;;;5070730;28;1177;-64
2021/04/23 10:09:29;;;;;;;;;;;19.90;48.40;;;;;;5071394;28;1236;-64
2021/04/23 10:11:54;;;;;;;;;;;19.90;48.90;;;;;;5068816;28;1844;-63
2021/04/23 10:14:20;;;;;;;;;;;19.90;49.30;;;;;;5073141;28;1061;-63
2021/04/23 10:16:46;;;;;;;;;;;20.00;49.90;;;;;;5062635;28;1130;-63
2021/04/23 10:19:12;;;;;;;;;;;20.00;50.30;;;;;;5060423;28;1910;-64
2021/04/23 10:21:37;;;;;;;;;;;20.00;50.70;;;;;;5071992;28;1158;-62
2021/04/23 10:24:02;;;;;;;;;;;20.00;51.10;;;;;;5071104;28;913;-63
2021/04/23 10:26:28;;;;;;;;;;;20.00;51.40;;;;;;5070470;28;1150;-63
2021/04/23 10:28:53;;;;;;;;;;;20.00;51.70;;;;;;5071172;28;1276;-62
2021/04/23 10:31:19;;;;;;;;;;;20.00;52.00;;;;;;5071005;28;1086;-65
2021/04/23 10:33:44;;;;;;;;;;;20.00;52.20;;;;;;5072400;28;1146;-63
2021/04/23 10:36:10;;;;;;;;;;;20.00;52.50;;;;;;5070490;28;1074;-63
2021/04/23 10:38:35;;;;;;;;;;;20.10;52.80;;;;;;5071982;28;1922;-62
2021/04/23 10:41:04;;;;;;;;;;;20.00;52.90;;;;;;5071135;28;1071;-63
2021/04/23 10:43:29;;;;;;;;;;;20.00;53.10;;;;;;5070984;28;1075;-63
2021/04/23 10:45:58;;;;;;;;;;;20.00;53.30;;;;;;5071882;28;1099;-63
2021/04/23 10:48:24;;;;;;;;;;;20.00;53.40;;;;;;5071999;28;1313;-63
2021/04/23 10:50:49;;;;;;;;;;;20.10;53.70;;;;;;5071496;28;1118;-62
2021/04/23 10:53:19;;;;;;;;;;;20.00;53.80;;;;;;5075706;28;1055;-63
2021/04/23 10:55:50;;;;;;;;;;;20.10;53.90;;;;;;5075484;28;1135;-63
2021/04/23 10:58:21;;;;;;;;;;;20.00;54.00;;;;;;5075518;28;1964;-62
2021/04/23 11:00:47;;;;;;;;;;;20.10;54.20;;;;;;5075529;28;1111;-62
2021/04/23 11:03:32;;;;;;;;;;;20.00;54.20;;;;;;5074245;28;1067;-63
2021/04/23 11:06:07;;;;;;;;;;;20.00;54.40;;;;;;5075219;28;1030;-63
2021/04/23 11:08:34;;;;;;;;;;;20.00;54.50;;;;;;5073926;28;1465;-62
2021/04/23 11:11:02;;;;;;;;;;;20.00;54.60;;;;;;5074748;28;1075;-63
2021/04/23 11:13:28;;;;;;;;;;;20.10;54.70;;;;;;5075133;28;1075;-64
2021/04/23 11:16:14;;;;;;;;;;;20.00;54.70;;;;;;5075008;28;1057;-64
2021/04/23 11:18:39;;;;;;;;;;;20.00;54.80;;;;;;5074989;28;1965;-62
2021/04/23 11:21:23;;;;;;;;;;;20.00;54.90;;;;;;5075147;28;1118;-64
2021/04/23 11:24:07;;;;;;;;;;;20.00;54.90;;;;;;5075192;28;1074;-64
2021/04/23 11:26:51;;;;;;;;;;;20.00;55.00;;;;;;5074831;28;1106;-63
2021/04/23 11:29:16;;;;;;;;;;;20.00;55.10;;;;;;5075030;28;1670;-64
2021/04/23 11:32:01;;;;;;;;;;;20.00;55.10;;;;;;5075059;28;1059;-62
2021/04/23 11:34:39;;;;;;;;;;;20.00;55.10;;;;;;5074670;28;1079;-63
2021/04/23 11:37:05;;;;;;;;;;;20.00;55.80;;;;;;5074666;28;1079;-63
2021/04/23 11:39:31;;;;;;;;;;;20.00;55.30;;;;;;5073439;28;1955;-65
2021/04/23 11:42:09;;;;;;;;;;;20.00;55.30;;;;;;5074820;28;1146;-63
2021/04/23 11:44:58;;;;;;;;;;;20.00;55.30;;;;;;5073503;28;1205;-65
2021/04/23 11:47:26;;;;;;;;;;;20.00;55.40;;;;;;5071483;28;1530;-63
2021/04/23 11:50:00;;;;;;;;;;;20.00;55.50;;;;;;5075141;28;1234;-65
2021/04/23 11:52:29;;;;;;;;;;;20.00;55.50;;;;;;5074491;28;1094;-66
2021/04/23 11:54:54;;;;;;;;;;;20.00;55.50;;;;;;5068584;28;1242;-66
2021/04/23 11:57:25;;;;;;;;;;;20.00;55.60;;;;;;5065439;28;1008;-66
2021/04/23 12:00:01;;;;;;;;;;;20.00;55.60;;;;;;5073222;28;1964;-65
2021/04/23 12:02:56;;;;;;;;;;;20.00;55.70;;;;;;5074151;28;1052;-66
2021/04/23 12:05:26;;;;;;;;;;;20.00;55.60;;;;;;5068406;28;1553;-65
2021/04/23 12:07:52;;;;;;;;;;;20.00;55.50;;;;;;5074012;28;1180;-66
2021/04/23 12:10:18;;;;;;;;;;;20.00;55.60;;;;;;5072942;28;1778;-66
2021/04/23 12:12:46;;;;;;;;;;;20.00;55.50;;;;;;5074073;28;1094;-65
2021/04/23 12:15:22;;;;;;;;;;;20.10;55.50;;;;;;5074078;28;1170;-66
2021/04/23 12:17:47;;;;;;;;;;;20.20;55.40;;;;;;5070199;28;1551;-66
2021/04/23 12:20:13;;;;;;;;;;;20.30;55.30;;;;;;5073707;28;1971;-65
2021/04/23 12:22:39;;;;;;;;;;;20.30;55.10;;;;;;5072483;28;1146;-65
2021/04/23 12:25:18;;;;;;;;;;;20.40;55.00;;;;;;5073821;28;1114;-64
2021/04/23 12:27:43;;;;;;;;;;;20.50;54.90;;;;;;5073163;28;1331;-65
2021/04/23 12:30:09;;;;;;;;;;;20.60;54.70;;;;;;5068726;28;1213;-65
2021/04/23 12:32:34;;;;;;;;;;;20.70;54.60;;;;;;5066771;28;1616;-66
2021/04/23 12:35:00;;;;;;;;;;;20.70;54.50;;;;;;5070881;28;1271;-65
2021/04/23 12:37:25;;;;;;;;;;;20.70;54.40;;;;;;5065931;28;1103;-66
2021/04/23 12:39:51;;;;;;;;;;;20.80;54.30;;;;;;5073535;28;1933;-66
2021/04/23 12:42:16;;;;;;;;;;;20.80;54.30;;;;;;5073682;28;1051;-65
2021/04/23 12:44:41;;;;;;;;;;;20.90;54.20;;;;;;5072326;28;1123;-67
2021/04/23 12:47:07;;;;;;;;;;;20.90;54.10;;;;;;5073174;28;1126;-65
2021/04/23 12:49:40;;;;;;;;;;;20.90;54.00;;;;;;5072978;28;1314;-65
2021/04/23 12:52:09;;;;;;;;;;;20.90;54.00;;;;;;5073339;28;1141;-65
2021/04/23 12:54:35;;;;;;;;;;;21.00;54.00;;;;;;5072083;28;1173;-66
2021/04/23 12:57:02;;;;;;;;;;;21.00;54.00;;;;;;5073113;28;1071;-65
2021/04/23 12:59:40;;;;;;;;;;;21.00;53.90;;;;;;5073023;28;1961;-66
2021/04/23 13:02:06;;;;;;;;;;;21.00;53.90;;;;;;5072715;28;1090;-64
2021/04/23 13:04:32;;;;;;;;;;;21.10;53.90;;;;;;5072197;28;1063;-66
2021/04/23 13:07:16;;;;;;;;;;;21.10;53.90;;;;;;5072798;28;1244;-66
2021/04/23 13:09:42;;;;;;;;;;;21.10;53.90;;;;;;5073195;28;1233;-65
2021/04/23 13:12:24;;;;;;;;;;;21.10;53.90;;;;;;5073002;28;1079;-65
2021/04/23 13:14:50;;;;;;;;;;;21.10;53.90;;;;;;5072560;28;1086;-65
2021/04/23 13:17:15;;;;;;;;;;;21.10;53.90;;;;;;5071647;28;1055;-66
2021/04/23 13:19:45;;;;;;;;;;;21.10;53.90;;;;;;5072981;28;1902;-65
2021/04/23 13:22:21;;;;;;;;;;;21.10;53.90;;;;;;5072874;28;1043;-65
2021/04/23 13:24:46;;;;;;;;;;;21.10;53.90;;;;;;5072712;28;1075;-65
2021/04/23 13:27:24;;;;;;;;;;;21.20;53.90;;;;;;5072473;28;1154;-66
2021/04/23 13:29:50;;;;;;;;;;;21.20;53.90;;;;;;5072864;28;1283;-66
2021/04/23 13:32:18;;;;;;;;;;;21.20;53.90;;;;;;5072812;28;1063;-65
2021/04/23 13:34:53;;;;;;;;;;;21.20;53.90;;;;;;5068656;28;1394;-65
2021/04/23 13:37:29;;;;;;;;;;;21.20;53.90;;;;;;5058890;28;1143;-66
2021/04/23 13:40:01;;;;;;;;;;;21.20;54.00;;;;;;5071795;28;1957;-66
2021/04/23 13:42:26;;;;;;;;;;;21.20;54.00;;;;;;5071545;28;1110;-66
2021/04/23 13:44:52;;;;;;;;;;;21.20;54.00;;;;;;5072681;28;1322;-66
2021/04/23 13:47:17;;;;;;;;;;;21.20;54.00;;;;;;5072437;28;1141;-66
2021/04/23 13:49:43;;;;;;;;;;;21.20;54.00;;;;;;5069844;28;1708;-66
2021/04/23 13:52:15;;;;;;;;;;;21.20;54.10;;;;;;5072631;28;956;-65
2021/04/23 13:54:40;;;;;;;;;;;21.20;54.10;;;;;;5072705;28;1070;-65
2021/04/23 13:57:10;;;;;;;;;;;21.10;54.00;;;;;;5072544;28;1213;-65
2021/04/23 13:59:35;;;;;;;;;;;21.10;54.10;;;;;;5072412;28;1901;-66
2021/04/23 14:02:04;;;;;;;;;;;21.10;54.10;;;;;;5072517;28;1291;-65
2021/04/23 14:04:30;;;;;;;;;;;21.10;54.20;;;;;;5072430;28;1087;-66
2021/04/23 14:06:59;;;;;;;;;;;21.10;54.30;;;;;;5065893;28;1452;-66
2021/04/23 14:09:24;;;;;;;;;;;21.10;54.30;;;;;;5072422;28;1246;-66
2021/04/23 14:11:51;;;;;;;;;;;21.10;54.40;;;;;;5072534;28;1126;-65
2021/04/23 14:14:17;;;;;;;;;;;21.00;54.40;;;;;;5072511;28;1235;-66
2021/04/23 14:16:42;;;;;;;;;;;21.00;54.40;;;;;;5072167;28;1063;-65
2021/04/23 14:19:08;;;;;;;;;;;21.00;54.50;;;;;;5072093;28;1946;-65
2021/04/23 14:21:34;;;;;;;;;;;21.00;54.50;;;;;;5072470;28;1048;-65
2021/04/23 14:23:59;;;;;;;;;;;21.00;54.50;;;;;;5072137;28;1216;-64
2021/04/23 14:26:25;;;;;;;;;;;21.00;54.50;;;;;;5073294;28;1174;-65
2021/04/23 14:28:50;;;;;;;;;;;21.00;54.60;;;;;;5074719;28;1268;-65
2021/04/23 14:31:16;;;;;;;;;;;21.00;54.60;;;;;;5076154;28;1087;-65